sensor_id;sensor_type;location;lat;lon;timestamp;temperature;humidity
71297;SHT31;59082;50.658;4.608;2022-10-17T00:02:15;14.51;99.99
71297;SHT31;59082;50.658;4.608;2022-10-17T00:04:40;14.56;99.99
71297;SHT31;59082;50.658;4.608;2022-10-17T00:07:06;14.56;99.99
71297;SHT31;59082;50.658;4.608;2022-10-17T00:09:31;14.59;99.99
71297;SHT31;59082;50.658;4.608;2022-10-17T00:11:57;14.55;99.99
71297;SHT31;59082;50.658;4.608;2022-10-17T00:14:22;14.55;99.99
71297;SHT31;59082;50.658;4.608;2022-10-17T00:16:48;14.56;99.99
71297;SHT31;59082;50.658;4.608;2022-10-17T00:19:14;14.57;99.99
71297;SHT31;59082;50.658;4.608;2022-10-17T00:21:40;14.61;99.99
71297;SHT31;59082;50.658;4.608;2022-10-17T00:24:05;14.66;99.99
71297;SHT31;59082;50.658;4.608;2022-10-17T00:26:31;14.63;99.99
71297;SHT31;59082;50.658;4.608;2022-10-17T00:28:57;14.67;99.99
71297;SHT31;59082;50.658;4.608;2022-10-17T00:31:23;14.64;99.99
71297;SHT31;59082;50.658;4.608;2022-10-17T00:33:49;14.67;99.99
71297;SHT31;59082;50.658;4.608;2022-10-17T00:36:20;14.66;99.99
71297;SHT31;59082;50.658;4.608;2022-10-17T00:38:48;14.66;99.99
71297;SHT31;59082;50.658;4.608;2022-10-17T00:41:16;14.64;99.99
71297;SHT31;59082;50.658;4.608;2022-10-17T00:44:05;14.68;99.99
71297;SHT31;59082;50.658;4.608;2022-10-17T00:46:33;14.83;99.99
71297;SHT31;59082;50.658;4.608;2022-10-17T00:49:03;14.81;99.99
71297;SHT31;59082;50.658;4.608;2022-10-17T00:51:36;14.80;99.99
71297;SHT31;59082;50.658;4.608;2022-10-17T00:54:03;14.80;99.99
71297;SHT31;59082;50.658;4.608;2022-10-17T00:56:29;14.81;99.99
71297;SHT31;59082;50.658;4.608;2022-10-17T00:58:55;14.77;99.99
71297;SHT31;59082;50.658;4.608;2022-10-17T01:01:21;14.81;99.99
71297;SHT31;59082;50.658;4.608;2022-10-17T01:03:46;14.85;99.99
71297;SHT31;59082;50.658;4.608;2022-10-17T01:06:13;14.80;99.99
71297;SHT31;59082;50.658;4.608;2022-10-17T01:08:38;14.77;99.99
71297;SHT31;59082;50.658;4.608;2022-10-17T01:14:23;14.73;99.99
71297;SHT31;59082;50.658;4.608;2022-10-17T01:19:41;14.76;99.99
71297;SHT31;59082;50.658;4.608;2022-10-17T01:33:29;14.99;99.99
71297;SHT31;59082;50.658;4.608;2022-10-17T01:38:54;15.02;99.99
71297;SHT31;59082;50.658;4.608;2022-10-17T01:44:19;14.89;99.99
71297;SHT31;59082;50.658;4.608;2022-10-17T01:46:49;14.91;99.99
71297;SHT31;59082;50.658;4.608;2022-10-17T01:49:19;14.88;99.99
71297;SHT31;59082;50.658;4.608;2022-10-17T01:51:56;14.84;99.99
71297;SHT31;59082;50.658;4.608;2022-10-17T01:54:39;14.78;99.99
71297;SHT31;59082;50.658;4.608;2022-10-17T01:57:10;14.91;99.99
71297;SHT31;59082;50.658;4.608;2022-10-17T01:59:41;14.81;99.99
71297;SHT31;59082;50.658;4.608;2022-10-17T02:02:09;14.80;99.99
71297;SHT31;59082;50.658;4.608;2022-10-17T02:04:36;14.73;99.99
71297;SHT31;59082;50.658;4.608;2022-10-17T02:07:08;14.67;99.99
71297;SHT31;59082;50.658;4.608;2022-10-17T02:09:35;14.64;99.99
71297;SHT31;59082;50.658;4.608;2022-10-17T02:12:24;14.63;99.99
71297;SHT31;59082;50.658;4.608;2022-10-17T02:20:19;14.67;99.99
71297;SHT31;59082;50.658;4.608;2022-10-17T02:23:02;14.64;99.99
71297;SHT31;59082;50.658;4.608;2022-10-17T02:25:56;14.68;99.99
71297;SHT31;59082;50.658;4.608;2022-10-17T02:28:30;14.67;99.99
71297;SHT31;59082;50.658;4.608;2022-10-17T02:31:13;14.66;99.99
71297;SHT31;59082;50.658;4.608;2022-10-17T02:33:43;14.57;99.99
71297;SHT31;59082;50.658;4.608;2022-10-17T02:36:21;14.63;99.99
71297;SHT31;59082;50.658;4.608;2022-10-17T02:38:49;14.68;99.99
71297;SHT31;59082;50.658;4.608;2022-10-17T02:41:17;14.73;99.99
71297;SHT31;59082;50.658;4.608;2022-10-17T02:43:46;14.70;99.99
71297;SHT31;59082;50.658;4.608;2022-10-17T02:46:14;14.71;99.99
71297;SHT31;59082;50.658;4.608;2022-10-17T02:48:48;14.73;99.99
71297;SHT31;59082;50.658;4.608;2022-10-17T02:51:28;14.80;99.99
71297;SHT31;59082;50.658;4.608;2022-10-17T02:54:19;14.83;99.99
71297;SHT31;59082;50.658;4.608;2022-10-17T02:56:54;14.87;99.99
71297;SHT31;59082;50.658;4.608;2022-10-17T02:59:24;14.94;99.99
71297;SHT31;59082;50.658;4.608;2022-10-17T03:01:50;14.99;99.99
71297;SHT31;59082;50.658;4.608;2022-10-17T03:04:17;15.02;99.99
71297;SHT31;59082;50.658;4.608;2022-10-17T03:06:43;15.01;99.99
71297;SHT31;59082;50.658;4.608;2022-10-17T03:09:10;15.07;99.99
71297;SHT31;59082;50.658;4.608;2022-10-17T03:11:36;15.11;99.99
71297;SHT31;59082;50.658;4.608;2022-10-17T03:14:01;15.12;99.99
71297;SHT31;59082;50.658;4.608;2022-10-17T03:16:27;15.16;99.99
71297;SHT31;59082;50.658;4.608;2022-10-17T03:18:52;15.19;99.99
71297;SHT31;59082;50.658;4.608;2022-10-17T03:21:18;15.15;99.99
71297;SHT31;59082;50.658;4.608;2022-10-17T03:23:43;15.12;99.99
71297;SHT31;59082;50.658;4.608;2022-10-17T03:26:09;15.18;99.99
71297;SHT31;59082;50.658;4.608;2022-10-17T03:28:35;15.24;99.99
71297;SHT31;59082;50.658;4.608;2022-10-17T03:31:12;15.16;99.99
71297;SHT31;59082;50.658;4.608;2022-10-17T03:33:39;15.12;99.99
71297;SHT31;59082;50.658;4.608;2022-10-17T03:36:09;15.07;99.99
71297;SHT31;59082;50.658;4.608;2022-10-17T03:38:35;15.01;99.99
71297;SHT31;59082;50.658;4.608;2022-10-17T03:41:02;14.99;99.99
71297;SHT31;59082;50.658;4.608;2022-10-17T03:43:27;15.01;99.99
71297;SHT31;59082;50.658;4.608;2022-10-17T03:45:53;14.97;99.99
71297;SHT31;59082;50.658;4.608;2022-10-17T03:48:19;14.94;99.99
71297;SHT31;59082;50.658;4.608;2022-10-17T03:50:44;14.91;99.99
71297;SHT31;59082;50.658;4.608;2022-10-17T03:53:10;14.92;99.99
71297;SHT31;59082;50.658;4.608;2022-10-17T03:55:36;14.95;99.99
71297;SHT31;59082;50.658;4.608;2022-10-17T03:58:01;14.95;99.99
71297;SHT31;59082;50.658;4.608;2022-10-17T04:00:27;14.99;99.99
71297;SHT31;59082;50.658;4.608;2022-10-17T04:02:52;15.04;99.99
71297;SHT31;59082;50.658;4.608;2022-10-17T04:05:18;14.99;99.99
71297;SHT31;59082;50.658;4.608;2022-10-17T04:07:43;14.98;99.99
71297;SHT31;59082;50.658;4.608;2022-10-17T04:10:09;14.97;99.99
71297;SHT31;59082;50.658;4.608;2022-10-17T04:12:37;14.94;99.99
71297;SHT31;59082;50.658;4.608;2022-10-17T04:15:02;14.99;99.99
71297;SHT31;59082;50.658;4.608;2022-10-17T04:17:31;14.98;99.99
71297;SHT31;59082;50.658;4.608;2022-10-17T04:19:57;15.04;99.99
71297;SHT31;59082;50.658;4.608;2022-10-17T04:22:23;15.01;99.99
71297;SHT31;59082;50.658;4.608;2022-10-17T04:24:48;15.07;99.99
71297;SHT31;59082;50.658;4.608;2022-10-17T04:27:16;15.08;99.99
71297;SHT31;59082;50.658;4.608;2022-10-17T04:29:42;15.09;99.99
71297;SHT31;59082;50.658;4.608;2022-10-17T04:32:08;15.11;99.99
71297;SHT31;59082;50.658;4.608;2022-10-17T04:34:34;15.14;99.99
71297;SHT31;59082;50.658;4.608;2022-10-17T04:36:59;15.19;99.99
71297;SHT31;59082;50.658;4.608;2022-10-17T04:39:25;15.16;99.99
71297;SHT31;59082;50.658;4.608;2022-10-17T04:41:50;15.14;99.99
71297;SHT31;59082;50.658;4.608;2022-10-17T04:44:16;15.14;99.99
71297;SHT31;59082;50.658;4.608;2022-10-17T04:46:41;15.12;99.99
71297;SHT31;59082;50.658;4.608;2022-10-17T04:49:07;15.16;99.99
71297;SHT31;59082;50.658;4.608;2022-10-17T04:51:33;15.19;99.99
71297;SHT31;59082;50.658;4.608;2022-10-17T04:53:58;15.21;99.99
71297;SHT31;59082;50.658;4.608;2022-10-17T04:56:24;15.21;99.99
71297;SHT31;59082;50.658;4.608;2022-10-17T04:58:50;15.15;99.99
71297;SHT31;59082;50.658;4.608;2022-10-17T05:01:19;15.18;99.99
71297;SHT31;59082;50.658;4.608;2022-10-17T05:03:45;15.21;99.99
71297;SHT31;59082;50.658;4.608;2022-10-17T05:06:19;15.15;99.99
71297;SHT31;59082;50.658;4.608;2022-10-17T05:08:46;15.14;99.99
71297;SHT31;59082;50.658;4.608;2022-10-17T05:11:19;15.08;99.99
71297;SHT31;59082;50.658;4.608;2022-10-17T05:13:52;15.08;99.99
71297;SHT31;59082;50.658;4.608;2022-10-17T05:16:18;15.04;99.99
71297;SHT31;59082;50.658;4.608;2022-10-17T05:18:47;15.05;99.99
71297;SHT31;59082;50.658;4.608;2022-10-17T05:21:12;15.04;99.99
71297;SHT31;59082;50.658;4.608;2022-10-17T05:23:39;15.07;99.99
71297;SHT31;59082;50.658;4.608;2022-10-17T05:26:04;15.04;99.99
71297;SHT31;59082;50.658;4.608;2022-10-17T05:28:30;15.04;99.99
71297;SHT31;59082;50.658;4.608;2022-10-17T05:30:55;15.04;99.99
71297;SHT31;59082;50.658;4.608;2022-10-17T05:33:22;15.04;99.99
71297;SHT31;59082;50.658;4.608;2022-10-17T05:35:48;15.02;99.99
71297;SHT31;59082;50.658;4.608;2022-10-17T05:38:13;15.02;99.99
71297;SHT31;59082;50.658;4.608;2022-10-17T05:40:39;15.05;99.99
71297;SHT31;59082;50.658;4.608;2022-10-17T05:43:05;15.04;99.99
71297;SHT31;59082;50.658;4.608;2022-10-17T05:45:30;15.04;99.99
71297;SHT31;59082;50.658;4.608;2022-10-17T05:47:56;15.07;99.99
71297;SHT31;59082;50.658;4.608;2022-10-17T05:50:21;15.11;99.99
71297;SHT31;59082;50.658;4.608;2022-10-17T05:52:52;15.11;99.99
71297;SHT31;59082;50.658;4.608;2022-10-17T05:55:17;15.14;99.99
71297;SHT31;59082;50.658;4.608;2022-10-17T05:57:43;15.21;99.99
71297;SHT31;59082;50.658;4.608;2022-10-17T06:00:09;15.22;99.99
71297;SHT31;59082;50.658;4.608;2022-10-17T06:02:34;15.29;99.99
71297;SHT31;59082;50.658;4.608;2022-10-17T06:05:00;15.31;99.99
71297;SHT31;59082;50.658;4.608;2022-10-17T06:07:25;15.32;99.99
71297;SHT31;59082;50.658;4.608;2022-10-17T06:09:51;15.35;99.99
71297;SHT31;59082;50.658;4.608;2022-10-17T06:12:20;15.39;99.99
71297;SHT31;59082;50.658;4.608;2022-10-17T06:14:48;15.39;99.99
71297;SHT31;59082;50.658;4.608;2022-10-17T06:17:14;15.42;99.99
71297;SHT31;59082;50.658;4.608;2022-10-17T06:19:39;15.42;99.99
71297;SHT31;59082;50.658;4.608;2022-10-17T06:22:07;15.42;99.99
71297;SHT31;59082;50.658;4.608;2022-10-17T06:24:32;15.39;99.99
71297;SHT31;59082;50.658;4.608;2022-10-17T06:26:58;15.40;99.99
71297;SHT31;59082;50.658;4.608;2022-10-17T06:29:24;15.42;99.99
71297;SHT31;59082;50.658;4.608;2022-10-17T06:31:50;15.47;99.99
71297;SHT31;59082;50.658;4.608;2022-10-17T06:34:15;15.54;99.99
71297;SHT31;59082;50.658;4.608;2022-10-17T06:36:41;15.62;99.99
71297;SHT31;59082;50.658;4.608;2022-10-17T06:39:06;15.69;99.99
71297;SHT31;59082;50.658;4.608;2022-10-17T06:41:32;15.81;99.99
71297;SHT31;59082;50.658;4.608;2022-10-17T06:43:57;15.89;99.99
71297;SHT31;59082;50.658;4.608;2022-10-17T06:46:23;15.93;99.99
71297;SHT31;59082;50.658;4.608;2022-10-17T06:48:51;16.00;99.99
71297;SHT31;59082;50.658;4.608;2022-10-17T06:51:17;16.17;99.99
71297;SHT31;59082;50.658;4.608;2022-10-17T06:53:42;16.19;99.99
71297;SHT31;59082;50.658;4.608;2022-10-17T06:56:08;16.24;99.99
71297;SHT31;59082;50.658;4.608;2022-10-17T06:58:36;16.32;99.99
71297;SHT31;59082;50.658;4.608;2022-10-17T07:01:09;16.41;99.99
71297;SHT31;59082;50.658;4.608;2022-10-17T07:03:35;16.42;99.99
71297;SHT31;59082;50.658;4.608;2022-10-17T07:06:02;16.39;99.99
71297;SHT31;59082;50.658;4.608;2022-10-17T07:08:28;16.42;99.99
71297;SHT31;59082;50.658;4.608;2022-10-17T07:10:54;16.38;99.99
71297;SHT31;59082;50.658;4.608;2022-10-17T07:13:20;16.45;99.99
71297;SHT31;59082;50.658;4.608;2022-10-17T07:15:45;16.46;99.99
71297;SHT31;59082;50.658;4.608;2022-10-17T07:18:12;16.48;99.99
71297;SHT31;59082;50.658;4.608;2022-10-17T07:20:37;16.49;99.99
71297;SHT31;59082;50.658;4.608;2022-10-17T07:23:03;16.59;99.99
71297;SHT31;59082;50.658;4.608;2022-10-17T07:25:29;16.72;99.99
71297;SHT31;59082;50.658;4.608;2022-10-17T07:27:55;16.93;99.99
71297;SHT31;59082;50.658;4.608;2022-10-17T07:30:21;17.04;99.99
71297;SHT31;59082;50.658;4.608;2022-10-17T07:32:46;16.97;99.99
71297;SHT31;59082;50.658;4.608;2022-10-17T07:35:12;16.94;99.99
71297;SHT31;59082;50.658;4.608;2022-10-17T07:37:38;16.97;99.99
71297;SHT31;59082;50.658;4.608;2022-10-17T07:40:06;17.00;99.99
71297;SHT31;59082;50.658;4.608;2022-10-17T07:42:32;17.04;99.99
71297;SHT31;59082;50.658;4.608;2022-10-17T07:45:00;17.17;99.99
71297;SHT31;59082;50.658;4.608;2022-10-17T07:47:25;17.17;99.99
71297;SHT31;59082;50.658;4.608;2022-10-17T07:49:51;17.17;99.99
71297;SHT31;59082;50.658;4.608;2022-10-17T07:52:16;17.10;99.99
71297;SHT31;59082;50.658;4.608;2022-10-17T07:54:42;17.14;99.99
71297;SHT31;59082;50.658;4.608;2022-10-17T07:57:08;17.23;99.99
71297;SHT31;59082;50.658;4.608;2022-10-17T07:59:35;17.31;99.99
71297;SHT31;59082;50.658;4.608;2022-10-17T08:02:01;17.39;99.99
71297;SHT31;59082;50.658;4.608;2022-10-17T08:04:27;17.39;99.99
71297;SHT31;59082;50.658;4.608;2022-10-17T08:06:52;17.46;99.99
71297;SHT31;59082;50.658;4.608;2022-10-17T08:09:18;17.42;99.99
71297;SHT31;59082;50.658;4.608;2022-10-17T08:11:44;17.41;99.99
71297;SHT31;59082;50.658;4.608;2022-10-17T08:14:11;17.32;99.99
71297;SHT31;59082;50.658;4.608;2022-10-17T08:16:37;17.11;99.99
71297;SHT31;59082;50.658;4.608;2022-10-17T08:19:03;17.11;99.99
71297;SHT31;59082;50.658;4.608;2022-10-17T08:21:29;17.08;99.99
71297;SHT31;59082;50.658;4.608;2022-10-17T08:23:54;17.04;99.99
71297;SHT31;59082;50.658;4.608;2022-10-17T08:26:20;17.08;99.99
71297;SHT31;59082;50.658;4.608;2022-10-17T08:28:46;17.15;99.99
71297;SHT31;59082;50.658;4.608;2022-10-17T08:31:14;17.20;99.99
71297;SHT31;59082;50.658;4.608;2022-10-17T08:33:40;17.14;99.99
71297;SHT31;59082;50.658;4.608;2022-10-17T08:36:08;17.11;99.99
71297;SHT31;59082;50.658;4.608;2022-10-17T08:38:35;17.13;99.99
71297;SHT31;59082;50.658;4.608;2022-10-17T08:41:04;17.17;99.99
71297;SHT31;59082;50.658;4.608;2022-10-17T08:43:49;17.34;99.99
71297;SHT31;59082;50.658;4.608;2022-10-17T08:46:31;17.65;99.99
71297;SHT31;59082;50.658;4.608;2022-10-17T08:49:00;17.66;99.99
71297;SHT31;59082;50.658;4.608;2022-10-17T08:51:30;17.63;99.99
71297;SHT31;59082;50.658;4.608;2022-10-17T08:57:14;17.99;99.99
71297;SHT31;59082;50.658;4.608;2022-10-17T08:59:41;18.10;99.99
71297;SHT31;59082;50.658;4.608;2022-10-17T09:19:48;17.56;99.99
71297;SHT31;59082;50.658;4.608;2022-10-17T09:22:19;17.58;99.99
71297;SHT31;59082;50.658;4.608;2022-10-17T09:24:52;17.51;99.99
71297;SHT31;59082;50.658;4.608;2022-10-17T09:32:48;17.35;99.99
71297;SHT31;59082;50.658;4.608;2022-10-17T09:35:14;17.46;99.99
71297;SHT31;59082;50.658;4.608;2022-10-17T09:37:40;17.56;99.99
71297;SHT31;59082;50.658;4.608;2022-10-17T09:40:11;17.52;99.99
71297;SHT31;59082;50.658;4.608;2022-10-17T09:42:38;17.56;99.99
71297;SHT31;59082;50.658;4.608;2022-10-17T09:45:15;17.49;99.99
71297;SHT31;59082;50.658;4.608;2022-10-17T09:47:48;17.59;99.99
71297;SHT31;59082;50.658;4.608;2022-10-17T09:50:27;17.63;99.99
71297;SHT31;59082;50.658;4.608;2022-10-17T09:52:54;17.62;99.99
71297;SHT31;59082;50.658;4.608;2022-10-17T09:55:50;17.72;99.99
71297;SHT31;59082;50.658;4.608;2022-10-17T09:58:18;17.97;99.99
71297;SHT31;59082;50.658;4.608;2022-10-17T10:00:46;18.04;99.99
71297;SHT31;59082;50.658;4.608;2022-10-17T10:03:19;18.01;99.99
71297;SHT31;59082;50.658;4.608;2022-10-17T10:06:15;17.97;99.99
71297;SHT31;59082;50.658;4.608;2022-10-17T10:08:52;18.03;99.99
71297;SHT31;59082;50.658;4.608;2022-10-17T10:12:05;17.97;99.99
71297;SHT31;59082;50.658;4.608;2022-10-17T10:16:46;18.24;99.99
71297;SHT31;59082;50.658;4.608;2022-10-17T10:19:29;18.34;99.99
71297;SHT31;59082;50.658;4.608;2022-10-17T10:21:59;18.71;99.99
71297;SHT31;59082;50.658;4.608;2022-10-17T10:24:25;18.65;99.99
71297;SHT31;59082;50.658;4.608;2022-10-17T10:26:53;18.55;99.99
71297;SHT31;59082;50.658;4.608;2022-10-17T10:29:24;18.57;99.99
71297;SHT31;59082;50.658;4.608;2022-10-17T10:31:53;18.62;99.99
71297;SHT31;59082;50.658;4.608;2022-10-17T10:34:27;18.55;99.99
71297;SHT31;59082;50.658;4.608;2022-10-17T10:42:06;18.61;99.99
71297;SHT31;59082;50.658;4.608;2022-10-17T10:44:35;18.58;99.99
71297;SHT31;59082;50.658;4.608;2022-10-17T10:47:21;18.64;99.99
71297;SHT31;59082;50.658;4.608;2022-10-17T10:49:50;18.55;99.99
71297;SHT31;59082;50.658;4.608;2022-10-17T10:52:55;18.45;99.99
71297;SHT31;59082;50.658;4.608;2022-10-17T10:55:48;18.37;99.99
71297;SHT31;59082;50.658;4.608;2022-10-17T11:01:34;18.33;99.99
71297;SHT31;59082;50.658;4.608;2022-10-17T11:06:51;18.33;99.99
71297;SHT31;59082;50.658;4.608;2022-10-17T11:12:30;18.49;99.99
71297;SHT31;59082;50.658;4.608;2022-10-17T11:15:23;18.62;99.99
71297;SHT31;59082;50.658;4.608;2022-10-17T11:18:05;18.59;99.99
71297;SHT31;59082;50.658;4.608;2022-10-17T11:25:48;18.65;99.99
71297;SHT31;59082;50.658;4.608;2022-10-17T11:28:16;18.72;99.99
71297;SHT31;59082;50.658;4.608;2022-10-17T11:30:55;18.91;99.99
71297;SHT31;59082;50.658;4.608;2022-10-17T11:33:29;18.88;99.99
71297;SHT31;59082;50.658;4.608;2022-10-17T11:36:04;18.88;99.99
71297;SHT31;59082;50.658;4.608;2022-10-17T11:40:58;18.75;99.99
71297;SHT31;59082;50.658;4.608;2022-10-17T11:43:34;18.81;99.99
71297;SHT31;59082;50.658;4.608;2022-10-17T11:46:17;18.72;99.99
71297;SHT31;59082;50.658;4.608;2022-10-17T11:49:00;18.64;99.99
71297;SHT31;59082;50.658;4.608;2022-10-17T11:51:28;18.58;99.99
71297;SHT31;59082;50.658;4.608;2022-10-17T11:54:11;18.49;99.99
71297;SHT31;59082;50.658;4.608;2022-10-17T11:59:44;18.40;99.99
71297;SHT31;59082;50.658;4.608;2022-10-17T12:07:47;18.51;99.99
71297;SHT31;59082;50.658;4.608;2022-10-17T12:21:25;18.45;99.99
71297;SHT31;59082;50.658;4.608;2022-10-17T12:23:52;18.31;99.99
71297;SHT31;59082;50.658;4.608;2022-10-17T12:26:26;18.37;99.99
71297;SHT31;59082;50.658;4.608;2022-10-17T12:28:52;18.41;99.99
71297;SHT31;59082;50.658;4.608;2022-10-17T12:33:47;18.54;99.99
71297;SHT31;59082;50.658;4.608;2022-10-17T12:52:19;18.49;99.99
71297;SHT31;59082;50.658;4.608;2022-10-17T13:00:22;18.62;99.99
71297;SHT31;59082;50.658;4.608;2022-10-17T13:02:51;18.44;99.99
71297;SHT31;59082;50.658;4.608;2022-10-17T13:05:37;18.33;99.99
71297;SHT31;59082;50.658;4.608;2022-10-17T13:08:07;18.27;99.99
71297;SHT31;59082;50.658;4.608;2022-10-17T13:10:38;18.34;99.99
71297;SHT31;59082;50.658;4.608;2022-10-17T13:15:53;18.37;99.99
71297;SHT31;59082;50.658;4.608;2022-10-17T13:18:28;18.47;99.99
71297;SHT31;59082;50.658;4.608;2022-10-17T13:21:00;18.37;99.99
71297;SHT31;59082;50.658;4.608;2022-10-17T13:23:35;18.55;99.99
71297;SHT31;59082;50.658;4.608;2022-10-17T13:26:22;18.47;99.99
71297;SHT31;59082;50.658;4.608;2022-10-17T13:29:10;18.44;99.99
71297;SHT31;59082;50.658;4.608;2022-10-17T13:31:38;18.47;99.99
71297;SHT31;59082;50.658;4.608;2022-10-17T13:34:14;18.58;99.99
71297;SHT31;59082;50.658;4.608;2022-10-17T13:36:41;18.54;99.99
71297;SHT31;59082;50.658;4.608;2022-10-17T13:39:09;18.57;99.99
71297;SHT31;59082;50.658;4.608;2022-10-17T13:41:38;18.66;99.99
71297;SHT31;59082;50.658;4.608;2022-10-17T13:44:17;18.81;99.99
71297;SHT31;59082;50.658;4.608;2022-10-17T13:46:43;18.75;99.99
71297;SHT31;59082;50.658;4.608;2022-10-17T13:49:14;18.69;99.99
71297;SHT31;59082;50.658;4.608;2022-10-17T13:51:45;18.66;99.99
71297;SHT31;59082;50.658;4.608;2022-10-17T13:54:41;18.52;99.99
71297;SHT31;59082;50.658;4.608;2022-10-17T13:59:54;18.47;99.99
71297;SHT31;59082;50.658;4.608;2022-10-17T14:02:27;18.51;99.99
71297;SHT31;59082;50.658;4.608;2022-10-17T14:05:09;18.51;99.99
71297;SHT31;59082;50.658;4.608;2022-10-17T14:10:21;18.47;99.99
71297;SHT31;59082;50.658;4.608;2022-10-17T14:12:48;18.40;99.99
71297;SHT31;59082;50.658;4.608;2022-10-17T14:15:14;18.51;99.99
71297;SHT31;59082;50.658;4.608;2022-10-17T14:17:41;18.57;99.99
71297;SHT31;59082;50.658;4.608;2022-10-17T14:20:17;18.69;99.99
71297;SHT31;59082;50.658;4.608;2022-10-17T14:22:43;18.69;99.99
71297;SHT31;59082;50.658;4.608;2022-10-17T14:28:02;18.59;99.99
71297;SHT31;59082;50.658;4.608;2022-10-17T14:30:37;18.48;99.99
71297;SHT31;59082;50.658;4.608;2022-10-17T14:33:06;18.47;99.99
71297;SHT31;59082;50.658;4.608;2022-10-17T14:35:32;18.52;99.99
71297;SHT31;59082;50.658;4.608;2022-10-17T14:38:03;18.40;99.99
71297;SHT31;59082;50.658;4.608;2022-10-17T14:40:31;18.33;99.99
71297;SHT31;59082;50.658;4.608;2022-10-17T14:42:59;18.34;99.99
71297;SHT31;59082;50.658;4.608;2022-10-17T14:45:34;18.30;99.99
71297;SHT31;59082;50.658;4.608;2022-10-17T14:48:13;18.34;99.99
71297;SHT31;59082;50.658;4.608;2022-10-17T14:50:39;18.45;99.99
71297;SHT31;59082;50.658;4.608;2022-10-17T14:53:20;18.55;99.99
71297;SHT31;59082;50.658;4.608;2022-10-17T14:55:59;18.45;99.99
71297;SHT31;59082;50.658;4.608;2022-10-17T14:58:28;18.34;99.99
71297;SHT31;59082;50.658;4.608;2022-10-17T15:00:55;18.31;99.99
71297;SHT31;59082;50.658;4.608;2022-10-17T15:03:21;18.30;99.99
71297;SHT31;59082;50.658;4.608;2022-10-17T15:05:48;18.27;99.99
71297;SHT31;59082;50.658;4.608;2022-10-17T15:08:19;18.24;99.99
71297;SHT31;59082;50.658;4.608;2022-10-17T15:10:49;18.18;99.99
71297;SHT31;59082;50.658;4.608;2022-10-17T15:13:15;18.06;99.99
71297;SHT31;59082;50.658;4.608;2022-10-17T15:15:41;17.99;99.99
71297;SHT31;59082;50.658;4.608;2022-10-17T15:18:10;17.91;99.99
71297;SHT31;59082;50.658;4.608;2022-10-17T15:20:37;17.80;99.99
71297;SHT31;59082;50.658;4.608;2022-10-17T15:23:04;17.79;99.99
71297;SHT31;59082;50.658;4.608;2022-10-17T15:25:30;17.73;99.99
71297;SHT31;59082;50.658;4.608;2022-10-17T15:27:57;17.79;99.99
71297;SHT31;59082;50.658;4.608;2022-10-17T15:30:29;17.68;99.99
71297;SHT31;59082;50.658;4.608;2022-10-17T15:32:57;17.53;99.99
71297;SHT31;59082;50.658;4.608;2022-10-17T15:35:23;17.46;99.99
71297;SHT31;59082;50.658;4.608;2022-10-17T15:37:50;17.46;99.99
71297;SHT31;59082;50.658;4.608;2022-10-17T15:40:22;17.44;99.99
71297;SHT31;59082;50.658;4.608;2022-10-17T15:42:52;17.44;99.99
71297;SHT31;59082;50.658;4.608;2022-10-17T15:45:18;17.41;99.99
71297;SHT31;59082;50.658;4.608;2022-10-17T15:47:53;17.42;99.99
71297;SHT31;59082;50.658;4.608;2022-10-17T15:50:20;17.45;99.99
71297;SHT31;59082;50.658;4.608;2022-10-17T15:52:47;17.44;99.99
71297;SHT31;59082;50.658;4.608;2022-10-17T15:55:15;17.32;99.99
71297;SHT31;59082;50.658;4.608;2022-10-17T15:57:42;17.30;99.99
71297;SHT31;59082;50.658;4.608;2022-10-17T16:00:20;17.27;99.99
71297;SHT31;59082;50.658;4.608;2022-10-17T16:02:46;17.20;99.99
71297;SHT31;59082;50.658;4.608;2022-10-17T16:05:24;17.13;99.99
71297;SHT31;59082;50.658;4.608;2022-10-17T16:07:51;17.11;99.99
71297;SHT31;59082;50.658;4.608;2022-10-17T16:10:17;17.00;99.99
71297;SHT31;59082;50.658;4.608;2022-10-17T16:12:44;16.91;99.99
71297;SHT31;59082;50.658;4.608;2022-10-17T16:15:13;16.80;99.99
71297;SHT31;59082;50.658;4.608;2022-10-17T16:17:39;16.77;99.99
71297;SHT31;59082;50.658;4.608;2022-10-17T16:20:05;16.67;99.99
71297;SHT31;59082;50.658;4.608;2022-10-17T16:22:33;16.60;99.99
71297;SHT31;59082;50.658;4.608;2022-10-17T16:28:15;16.45;99.99
71297;SHT31;59082;50.658;4.608;2022-10-17T16:30:42;16.42;99.99
71297;SHT31;59082;50.658;4.608;2022-10-17T16:33:10;16.35;99.99
71297;SHT31;59082;50.658;4.608;2022-10-17T16:35:36;16.35;99.99
71297;SHT31;59082;50.658;4.608;2022-10-17T16:38:03;16.24;99.99
71297;SHT31;59082;50.658;4.608;2022-10-17T16:40:28;16.18;99.99
71297;SHT31;59082;50.658;4.608;2022-10-17T16:42:54;16.14;99.99
71297;SHT31;59082;50.658;4.608;2022-10-17T16:45:21;16.10;99.99
71297;SHT31;59082;50.658;4.608;2022-10-17T16:47:48;16.05;99.99
71297;SHT31;59082;50.658;4.608;2022-10-17T16:50:14;15.98;99.99
71297;SHT31;59082;50.658;4.608;2022-10-17T16:52:40;15.97;99.99
71297;SHT31;59082;50.658;4.608;2022-10-17T16:55:06;15.94;99.99
71297;SHT31;59082;50.658;4.608;2022-10-17T16:57:32;15.89;99.99
71297;SHT31;59082;50.658;4.608;2022-10-17T16:59:58;15.71;99.99
71297;SHT31;59082;50.658;4.608;2022-10-17T17:02:24;15.73;99.99
71297;SHT31;59082;50.658;4.608;2022-10-17T17:04:49;15.70;99.99
71297;SHT31;59082;50.658;4.608;2022-10-17T17:07:15;15.69;99.99
71297;SHT31;59082;50.658;4.608;2022-10-17T17:09:42;15.64;99.99
71297;SHT31;59082;50.658;4.608;2022-10-17T17:12:08;15.67;99.99
71297;SHT31;59082;50.658;4.608;2022-10-17T17:14:33;15.66;99.99
71297;SHT31;59082;50.658;4.608;2022-10-17T17:16:59;15.67;99.99
71297;SHT31;59082;50.658;4.608;2022-10-17T17:19:25;15.66;99.99
71297;SHT31;59082;50.658;4.608;2022-10-17T17:21:50;15.62;99.99
71297;SHT31;59082;50.658;4.608;2022-10-17T17:24:17;15.62;99.99
71297;SHT31;59082;50.658;4.608;2022-10-17T17:26:45;15.56;99.99
71297;SHT31;59082;50.658;4.608;2022-10-17T17:29:14;15.52;99.99
71297;SHT31;59082;50.658;4.608;2022-10-17T17:31:39;15.50;99.99
71297;SHT31;59082;50.658;4.608;2022-10-17T17:34:05;15.46;99.99
71297;SHT31;59082;50.658;4.608;2022-10-17T17:36:33;15.39;99.99
71297;SHT31;59082;50.658;4.608;2022-10-17T17:39:01;15.38;99.99
71297;SHT31;59082;50.658;4.608;2022-10-17T17:41:28;15.35;99.99
71297;SHT31;59082;50.658;4.608;2022-10-17T17:43:55;15.32;99.99
71297;SHT31;59082;50.658;4.608;2022-10-17T17:46:21;15.24;99.99
71297;SHT31;59082;50.658;4.608;2022-10-17T17:48:48;15.25;99.99
71297;SHT31;59082;50.658;4.608;2022-10-17T17:51:17;15.21;99.99
71297;SHT31;59082;50.658;4.608;2022-10-17T17:53:43;15.22;99.99
71297;SHT31;59082;50.658;4.608;2022-10-17T17:56:14;15.19;99.99
71297;SHT31;59082;50.658;4.608;2022-10-17T17:58:42;15.19;99.99
71297;SHT31;59082;50.658;4.608;2022-10-17T18:01:15;15.18;99.99